Time;durP1;ratioP1;P1;durP2;ratioP2;P2;SDS_P1;SDS_P2;PMS_P1;PMS_P2;Temp;Humidity;BMP_temperature;BMP_pressure;BME280_temperature;BME280_humidity;BME280_pressure;Samples;Min_cycle;Max_cycle;Signal;HPM_P1;HPM_P2
2021/05/13 00:00:23;;;;;;;41.50;5.03;;;12.00;99.30;;;;;;4975229;28;20508;-88
2021/05/13 00:02:48;;;;;;;31.33;4.80;;;12.00;99.20;;;;;;4962170;28;20019;-87
2021/05/13 00:05:14;;;;;;;35.92;4.95;;;12.00;98.90;;;;;;4953562;28;20077;-88
2021/05/13 00:07:40;;;;;;;30.38;4.95;;;12.00;99.00;;;;;;4972220;28;20023;-88
2021/05/13 00:10:09;;;;;;;35.70;4.88;;;12.00;99.30;;;;;;4977091;28;20045;-89
2021/05/13 00:15:23;;;;;;;31.48;5.13;;;12.00;99.50;;;;;;4977168;28;20041;-84
2021/05/13 00:17:50;;;;;;;35.67;4.78;;;12.00;99.30;;;;;;4972152;28;20035;-84
2021/05/13 00:20:23;;;;;;;31.85;4.50;;;12.00;99.00;;;;;;4977036;28;20031;-84
2021/05/13 00:22:49;;;;;;;26.55;3.58;;;12.00;98.50;;;;;;4954677;28;20146;-84
2021/05/13 00:25:15;;;;;;;32.80;4.38;;;12.10;98.50;;;;;;4976006;28;20524;-84
2021/05/13 00:27:41;;;;;;;27.92;4.03;;;12.10;98.50;;;;;;4983542;28;20022;-84
2021/05/13 00:30:08;;;;;;;22.30;3.65;;;12.10;98.00;;;;;;4977535;28;20644;-85
2021/05/13 00:32:36;;;;;;;19.73;3.28;;;12.10;97.90;;;;;;4973461;28;20522;-85
2021/05/13 00:35:04;;;;;;;34.40;4.10;;;12.10;97.60;;;;;;4976679;28;20030;-84
2021/05/13 00:37:30;;;;;;;27.08;4.57;;;12.10;97.60;;;;;;4975472;28;20025;-85
2021/05/13 00:39:55;;;;;;;27.25;4.57;;;12.10;97.40;;;;;;4975337;28;20051;-85
2021/05/13 00:42:21;;;;;;;33.03;3.75;;;12.20;97.30;;;;;;4976894;28;20030;-85
2021/05/13 00:44:47;;;;;;;34.95;4.50;;;12.20;97.10;;;;;;4972425;28;20031;-85
2021/05/13 00:47:13;;;;;;;31.17;4.07;;;12.30;97.40;;;;;;4971498;28;20031;-85
2021/05/13 00:49:42;;;;;;;31.42;3.78;;;12.20;97.20;;;;;;4973257;28;20039;-85
2021/05/13 00:52:12;;;;;;;41.47;5.15;;;12.30;97.00;;;;;;4978316;28;20042;-85
2021/05/13 00:54:42;;;;;;;36.50;5.30;;;12.20;97.20;;;;;;4976401;28;20066;-85
2021/05/13 00:57:11;;;;;;;34.25;5.40;;;12.20;97.20;;;;;;4971151;28;20038;-85
2021/05/13 00:59:39;;;;;;;31.30;5.43;;;12.20;97.20;;;;;;4976607;28;20029;-85
2021/05/13 01:02:05;;;;;;;33.35;5.07;;;12.20;97.40;;;;;;4963178;28;20026;-85
2021/05/13 01:04:30;;;;;;;29.83;5.50;;;12.20;97.50;;;;;;4973542;28;20031;-85
2021/05/13 01:06:56;;;;;;;38.97;4.93;;;12.20;97.90;;;;;;4976428;28;20023;-85
2021/05/13 01:09:23;;;;;;;35.22;4.82;;;12.20;98.20;;;;;;4973527;28;20041;-86
2021/05/13 01:11:55;;;;;;;25.35;4.07;;;12.20;98.70;;;;;;4977512;28;20038;-85
2021/05/13 01:19:31;;;;;;;36.13;4.70;;;12.20;98.00;;;;;;4971444;28;20023;-84
2021/05/13 01:21:58;;;;;;;23.80;3.90;;;12.20;97.90;;;;;;4979626;28;20384;-85
2021/05/13 01:24:24;;;;;;;24.20;3.85;;;12.20;97.50;;;;;;4971909;28;20403;-84
2021/05/13 01:26:50;;;;;;;31.23;3.67;;;12.10;97.20;;;;;;4979728;28;20034;-84
2021/05/13 01:29:21;;;;;;;31.30;4.68;;;12.00;97.20;;;;;;4970144;28;20557;-84
2021/05/13 01:31:48;;;;;;;31.50;5.53;;;12.00;97.60;;;;;;4977994;28;20496;-84
2021/05/13 01:34:15;;;;;;;31.45;4.07;;;12.00;97.70;;;;;;4956217;28;20035;-83
2021/05/13 01:36:41;;;;;;;22.67;3.60;;;12.00;97.50;;;;;;4977412;28;20069;-84
2021/05/13 01:39:10;;;;;;;21.30;3.60;;;12.10;97.60;;;;;;4972536;28;20034;-83
2021/05/13 01:41:37;;;;;;;29.40;5.18;;;12.10;97.70;;;;;;4973747;28;20046;-84
2021/05/13 01:44:03;;;;;;;40.17;5.72;;;12.10;97.40;;;;;;4956622;28;20030;-84
2021/05/13 01:46:29;;;;;;;27.67;5.28;;;12.10;97.60;;;;;;4967978;28;20104;-84
2021/05/13 01:48:55;;;;;;;43.67;5.60;;;12.20;97.70;;;;;;4979850;28;20039;-83
2021/05/13 01:51:21;;;;;;;35.47;5.13;;;12.20;97.90;;;;;;4981894;28;20027;-85
2021/05/13 01:53:47;;;;;;;37.00;4.22;;;12.20;97.20;;;;;;4958097;28;20030;-85
2021/05/13 01:56:13;;;;;;;28.05;4.65;;;12.30;97.40;;;;;;4982938;28;20023;-85
2021/05/13 01:58:40;;;;;;;31.70;4.25;;;12.30;97.40;;;;;;4974942;28;20035;-85
2021/05/13 02:01:09;;;;;;;31.00;4.57;;;12.30;97.90;;;;;;4965871;28;20019;-85
2021/05/13 02:03:36;;;;;;;34.03;4.57;;;12.30;97.60;;;;;;4972562;28;20033;-85
2021/05/13 02:06:02;;;;;;;24.85;3.83;;;12.30;97.50;;;;;;4980147;28;20026;-86
2021/05/13 02:08:28;;;;;;;25.42;4.22;;;12.30;96.80;;;;;;4974295;28;20035;-87
2021/05/13 02:10:53;;;;;;;35.35;5.25;;;12.30;96.70;;;;;;4981728;28;20031;-85
2021/05/13 02:13:19;;;;;;;24.50;3.83;;;12.30;96.50;;;;;;4983922;28;20055;-86
2021/05/13 02:15:45;;;;;;;30.88;3.83;;;12.30;96.60;;;;;;4982295;28;20029;-85
2021/05/13 02:18:10;;;;;;;30.90;4.32;;;12.30;96.50;;;;;;4974363;28;20455;-86
2021/05/13 02:20:36;;;;;;;17.67;3.58;;;12.30;96.40;;;;;;4950470;28;20031;-86
2021/05/13 02:23:02;;;;;;;28.25;4.03;;;12.30;96.30;;;;;;4961121;28;20046;-86
2021/05/13 02:25:31;;;;;;;27.52;3.92;;;12.20;96.10;;;;;;4982543;28;20547;-86
2021/05/13 02:27:58;;;;;;;29.02;4.13;;;12.20;95.60;;;;;;4974411;28;20420;-86
2021/05/13 02:30:24;;;;;;;28.35;4.03;;;12.20;95.40;;;;;;4975626;28;20526;-86
2021/05/13 02:32:49;;;;;;;23.08;4.10;;;12.20;95.60;;;;;;4973640;28;20023;-87
2021/05/13 02:35:16;;;;;;;19.98;3.40;;;12.20;95.60;;;;;;4982071;28;20030;-87
2021/05/13 02:37:42;;;;;;;19.85;3.97;;;12.20;95.80;;;;;;4959466;28;20530;-88
2021/05/13 02:40:10;;;;;;;28.02;3.67;;;12.20;96.00;;;;;;4978795;28;20065;-85
2021/05/13 02:42:36;;;;;;;18.55;3.22;;;12.30;96.00;;;;;;4970160;28;20096;-83
2021/05/13 02:45:04;;;;;;;20.75;3.28;;;12.20;96.30;;;;;;4978668;28;20037;-84
2021/05/13 02:47:29;;;;;;;25.35;3.47;;;12.00;96.70;;;;;;4977766;28;20027;-85
2021/05/13 02:49:55;;;;;;;18.95;3.22;;;11.80;97.60;;;;;;4978097;28;20045;-85
2021/05/13 02:52:21;;;;;;;20.98;3.33;;;11.80;98.20;;;;;;4979348;28;20506;-85
2021/05/13 02:54:47;;;;;;;24.83;2.97;;;11.80;98.40;;;;;;4954213;28;20038;-85
2021/05/13 02:57:13;;;;;;;32.13;3.95;;;11.70;98.30;;;;;;4976858;28;20436;-85
2021/05/13 02:59:46;;;;;;;28.67;3.97;;;11.70;98.50;;;;;;4976784;28;20117;-85
2021/05/13 03:02:13;;;;;;;25.93;3.97;;;11.70;98.60;;;;;;4973509;28;20487;-85
2021/05/13 03:04:41;;;;;;;31.08;3.67;;;11.70;98.80;;;;;;4977395;28;20801;-84
2021/05/13 03:07:07;;;;;;;37.22;4.70;;;11.80;98.40;;;;;;4975899;28;20459;-85
2021/05/13 03:09:38;;;;;;;19.25;3.53;;;11.80;98.10;;;;;;4978411;28;20070;-85
2021/05/13 03:12:04;;;;;;;21.27;3.35;;;11.90;98.30;;;;;;4969858;28;20480;-85
2021/05/13 03:14:30;;;;;;;25.95;3.42;;;11.90;98.00;;;;;;4961603;28;20113;-85
2021/05/13 03:16:56;;;;;;;25.73;3.40;;;12.00;97.80;;;;;;4969847;28;20432;-85
2021/05/13 03:19:30;;;;;;;27.20;3.90;;;12.00;97.50;;;;;;4967737;28;20105;-85
2021/05/13 03:21:58;;;;;;;22.80;3.53;;;12.10;97.20;;;;;;4973254;28;20022;-86
2021/05/13 03:24:33;;;;;;;30.15;4.15;;;12.10;97.60;;;;;;4976837;28;20495;-87
2021/05/13 03:27:10;;;;;;;24.02;3.15;;;12.00;97.30;;;;;;4961532;28;20526;-86
2021/05/13 03:29:36;;;;;;;25.52;4.05;;;12.00;96.40;;;;;;4950243;28;20065;-86
2021/05/13 03:32:02;;;;;;;23.65;3.72;;;12.00;96.30;;;;;;4972638;28;20411;-87
2021/05/13 03:34:28;;;;;;;29.83;3.72;;;12.00;96.50;;;;;;4977196;28;20049;-86
2021/05/13 03:36:54;;;;;;;25.17;3.45;;;12.00;96.70;;;;;;4973202;28;20373;-87
2021/05/13 03:39:19;;;;;;;33.00;4.32;;;12.00;96.70;;;;;;4971414;28;20029;-88
2021/05/13 03:41:45;;;;;;;25.33;4.20;;;12.00;97.30;;;;;;4972813;28;20043;-87
2021/05/13 03:44:11;;;;;;;21.25;3.85;;;12.10;97.20;;;;;;4974692;28;20026;-85
2021/05/13 03:46:37;;;;;;;31.55;4.75;;;12.10;96.70;;;;;;4978013;28;20026;-88
2021/05/13 03:49:03;;;;;;;24.02;4.18;;;12.00;97.60;;;;;;4955846;28;20513;-87
2021/05/13 03:51:28;;;;;;;28.67;3.92;;;12.00;97.40;;;;;;4959169;28;20399;-87
2021/05/13 03:53:54;;;;;;;29.75;3.70;;;11.90;97.40;;;;;;4973332;28;20104;-86
2021/05/13 03:56:20;;;;;;;29.73;4.13;;;11.90;97.70;;;;;;4985608;28;20061;-85
2021/05/13 03:58:54;;;;;;;29.17;4.40;;;11.90;97.80;;;;;;4980615;28;20057;-87
2021/05/13 04:04:04;;;;;;;28.60;4.63;;;11.80;97.90;;;;;;4973473;28;20069;-86
2021/05/13 04:06:30;;;;;;;23.90;3.63;;;11.80;97.40;;;;;;4973295;28;20050;-86
2021/05/13 04:08:56;;;;;;;26.70;3.63;;;11.80;97.50;;;;;;4971473;28;20508;-86
2021/05/13 04:11:21;;;;;;;26.88;4.35;;;11.90;97.40;;;;;;4957557;28;20019;-87
2021/05/13 04:13:48;;;;;;;26.02;4.65;;;11.90;97.20;;;;;;4973019;28;20097;-87
2021/05/13 04:16:13;;;;;;;31.60;4.55;;;11.90;97.00;;;;;;4977148;28;20061;-86
2021/05/13 04:18:39;;;;;;;26.35;4.45;;;11.90;97.30;;;;;;4972090;28;20035;-86
2021/05/13 04:21:05;;;;;;;27.08;4.82;;;11.90;97.80;;;;;;4979751;28;20549;-87
2021/05/13 04:23:32;;;;;;;24.92;3.95;;;11.80;97.70;;;;;;4970691;28;20737;-87
2021/05/13 04:25:57;;;;;;;32.17;5.07;;;11.90;97.60;;;;;;4975632;28;20109;-87
2021/05/13 04:28:23;;;;;;;27.42;3.38;;;11.90;97.60;;;;;;4971911;28;20472;-86
2021/05/13 04:30:48;;;;;;;28.13;3.88;;;11.90;97.50;;;;;;4958955;28;20254;-87
2021/05/13 04:33:14;;;;;;;37.05;4.65;;;11.90;97.60;;;;;;4974501;28;20054;-87
2021/05/13 04:35:40;;;;;;;23.90;3.85;;;11.90;97.70;;;;;;4977222;28;20030;-87
2021/05/13 04:38:06;;;;;;;35.25;4.65;;;12.00;97.20;;;;;;4975381;28;20265;-87
2021/05/13 04:40:32;;;;;;;44.15;5.45;;;12.00;96.70;;;;;;4973743;28;20686;-86
2021/05/13 04:42:58;;;;;;;27.55;3.90;;;12.10;96.70;;;;;;4972034;28;20037;-87
2021/05/13 04:45:23;;;;;;;28.42;4.18;;;12.10;95.50;;;;;;4977109;28;20036;-86
2021/05/13 04:48:11;;;;;;;38.53;4.90;;;12.10;96.00;;;;;;4971947;28;20054;-88
2021/05/13 04:50:37;;;;;;;29.80;4.25;;;12.20;95.60;;;;;;4978050;28;20035;-90
2021/05/13 04:53:07;;;;;;;27.40;4.00;;;12.20;95.20;;;;;;4971084;28;20027;-93
2021/05/13 04:55:34;;;;;;;28.90;3.97;;;12.20;95.30;;;;;;4964491;28;20019;-92
2021/05/13 04:58:00;;;;;;;30.05;4.07;;;12.20;95.30;;;;;;4963592;28;20129;-92
2021/05/13 05:00:26;;;;;;;35.33;5.93;;;12.20;95.50;;;;;;4962266;28;20543;-91
2021/05/13 05:02:51;;;;;;;20.95;3.70;;;12.20;95.50;;;;;;4979609;28;20505;-92
2021/05/13 05:05:17;;;;;;;33.97;4.30;;;12.30;95.60;;;;;;4962051;28;20038;-93
2021/05/13 05:07:43;;;;;;;33.10;3.47;;;12.30;95.80;;;;;;4961992;28;20027;-93
2021/05/13 05:10:09;;;;;;;27.85;3.53;;;12.40;95.80;;;;;;4958697;28;20034;-94
2021/05/13 05:12:35;;;;;;;24.08;3.75;;;12.40;95.30;;;;;;4955041;28;20037;-95
2021/05/13 05:15:01;;;;;;;20.23;3.63;;;12.40;95.40;;;;;;4959830;28;20396;-93
2021/05/13 05:17:29;;;;;;;26.23;3.97;;;12.40;95.10;;;;;;4967787;28;20019;-95
2021/05/13 05:19:55;;;;;;;30.15;4.45;;;12.40;95.10;;;;;;4960401;28;20023;-93
2021/05/13 05:22:21;;;;;;;32.92;4.68;;;12.40;94.40;;;;;;4967238;28;20027;-93
2021/05/13 05:24:47;;;;;;;31.45;3.95;;;12.40;94.40;;;;;;4959586;28;20031;-90
2021/05/13 05:27:15;;;;;;;29.38;4.13;;;12.40;94.70;;;;;;4959751;28;20377;-92
2021/05/13 05:29:41;;;;;;;19.30;4.10;;;12.50;94.60;;;;;;4956456;28;20042;-92
2021/05/13 05:32:07;;;;;;;35.92;4.55;;;12.50;94.80;;;;;;4957555;28;20023;-91
2021/05/13 05:34:33;;;;;;;34.17;4.97;;;12.60;94.90;;;;;;4955924;28;20027;-91
2021/05/13 05:36:58;;;;;;;29.90;3.90;;;12.60;94.90;;;;;;4972076;28;20023;-92
2021/05/13 05:39:25;;;;;;;24.55;3.90;;;12.60;94.90;;;;;;4954475;28;20570;-91
2021/05/13 05:41:52;;;;;;;31.83;4.22;;;12.70;94.50;;;;;;4967482;28;20059;-91
2021/05/13 05:44:18;;;;;;;29.45;4.82;;;12.60;94.00;;;;;;4971763;28;20035;-92
2021/05/13 05:46:44;;;;;;;22.52;3.38;;;12.60;93.30;;;;;;4968828;28;20034;-92
2021/05/13 05:49:10;;;;;;;18.23;2.72;;;12.60;93.80;;;;;;4964571;28;20039;-92
2021/05/13 05:51:36;;;;;;;34.80;3.85;;;12.60;93.60;;;;;;4959724;28;20027;-90
2021/05/13 05:54:03;;;;;;;27.40;3.70;;;12.70;93.70;;;;;;4966937;28;20041;-92
2021/05/13 05:56:29;;;;;;;22.98;3.55;;;12.70;93.30;;;;;;4971527;28;20022;-91
2021/05/13 05:58:54;;;;;;;31.60;3.80;;;12.80;92.80;;;;;;4963263;28;20022;-90
2021/05/13 06:01:20;;;;;;;23.05;3.83;;;12.80;92.80;;;;;;4965749;28;20025;-92
2021/05/13 06:03:46;;;;;;;18.08;3.10;;;12.80;92.60;;;;;;4965857;28;20444;-89
2021/05/13 06:06:13;;;;;;;24.70;4.38;;;12.70;92.90;;;;;;4966162;28;20114;-90
2021/05/13 06:08:39;;;;;;;19.70;2.80;;;12.70;92.90;;;;;;4967122;28;20053;-92
2021/05/13 06:11:04;;;;;;;28.40;3.25;;;12.70;92.90;;;;;;4975710;28;20027;-96
2021/05/13 06:13:30;;;;;;;26.50;3.25;;;12.70;92.80;;;;;;4964913;28;20113;-91
2021/05/13 06:15:56;;;;;;;27.83;3.72;;;12.80;92.20;;;;;;4970656;28;20054;-91
2021/05/13 06:18:22;;;;;;;19.73;3.10;;;12.80;93.20;;;;;;4967810;28;20023;-90
2021/05/13 06:20:47;;;;;;;19.55;3.72;;;12.90;92.60;;;;;;4972233;28;20047;-91
2021/05/13 06:23:13;;;;;;;20.60;3.65;;;13.00;93.00;;;;;;4977872;28;20050;-91
2021/05/13 06:25:39;;;;;;;19.17;3.35;;;13.00;92.30;;;;;;4978453;28;20066;-91
2021/05/13 06:28:07;;;;;;;31.77;4.25;;;13.00;92.40;;;;;;4971477;28;20544;-92
2021/05/13 06:30:32;;;;;;;20.10;3.33;;;12.90;93.20;;;;;;4979226;28;20048;-92
2021/05/13 06:32:58;;;;;;;21.92;3.30;;;12.90;92.60;;;;;;4974378;28;20030;-93
2021/05/13 06:35:24;;;;;;;22.60;3.50;;;13.10;92.40;;;;;;4983269;28;20019;-92
2021/05/13 06:37:50;;;;;;;21.98;3.45;;;13.20;92.30;;;;;;4975582;28;20034;-91
2021/05/13 06:40:16;;;;;;;23.65;2.95;;;13.20;92.00;;;;;;4980059;28;20050;-91
2021/05/13 06:42:42;;;;;;;26.52;3.53;;;13.20;92.30;;;;;;4973973;28;20022;-91
2021/05/13 06:45:09;;;;;;;24.45;2.45;;;13.30;91.50;;;;;;4979130;28;20035;-91
2021/05/13 06:47:38;;;;;;;18.13;2.92;;;13.20;91.00;;;;;;4974035;28;20023;-92
2021/05/13 06:50:04;;;;;;;22.80;2.88;;;13.30;91.30;;;;;;4984263;28;20045;-90
2021/05/13 06:52:30;;;;;;;23.90;3.38;;;13.30;91.60;;;;;;4970969;28;20024;-91
2021/05/13 06:54:56;;;;;;;19.92;2.72;;;13.30;91.30;;;;;;4970456;28;20511;-91
2021/05/13 06:57:21;;;;;;;25.20;3.55;;;13.40;91.30;;;;;;4971978;28;20018;-91
2021/05/13 06:59:47;;;;;;;23.33;3.08;;;13.40;91.50;;;;;;4972018;28;20036;-90
2021/05/13 07:02:13;;;;;;;23.17;2.97;;;13.60;91.60;;;;;;4979067;28;20125;-90
2021/05/13 07:04:39;;;;;;;20.20;3.58;;;13.60;91.30;;;;;;4974641;28;20037;-91
2021/05/13 07:07:06;;;;;;;18.98;2.83;;;13.50;91.60;;;;;;4972827;28;20050;-86
2021/05/13 07:09:31;;;;;;;22.90;2.88;;;13.50;92.40;;;;;;4974641;28;20090;-87
2021/05/13 07:11:58;;;;;;;23.30;3.08;;;13.40;92.30;;;;;;4970180;28;20026;-85
2021/05/13 07:14:23;;;;;;;16.58;3.08;;;13.40;91.00;;;;;;4968752;28;20106;-87
2021/05/13 07:16:49;;;;;;;19.45;2.80;;;13.40;90.40;;;;;;4970140;28;20119;-85
2021/05/13 07:19:16;;;;;;;15.60;2.40;;;13.50;90.40;;;;;;4970078;28;20034;-77
2021/05/13 07:21:42;;;;;;;36.33;4.57;;;13.60;90.20;;;;;;4967605;28;20473;-76
2021/05/13 07:24:08;;;;;;;54.28;4.88;;;13.80;90.10;;;;;;4971800;28;20030;-79
2021/05/13 07:26:34;;;;;;;18.48;3.35;;;14.00;90.20;;;;;;4976936;28;20447;-77
2021/05/13 07:29:00;;;;;;;27.42;3.40;;;14.20;87.90;;;;;;4973496;28;20125;-76
2021/05/13 07:31:26;;;;;;;17.00;2.35;;;14.20;90.00;;;;;;4977248;28;20489;-80
2021/05/13 07:33:52;;;;;;;100.45;7.65;;;14.30;88.40;;;;;;4973607;28;20126;-76
2021/05/13 07:36:17;;;;;;;122.55;8.35;;;14.30;88.00;;;;;;4975348;28;20027;-79
2021/05/13 07:38:44;;;;;;;89.45;6.95;;;14.20;88.40;;;;;;4959934;28;20062;-78
2021/05/13 07:41:09;;;;;;;22.45;2.92;;;14.00;88.50;;;;;;4972102;28;20524;-76
2021/05/13 07:43:37;;;;;;;16.95;3.60;;;14.00;88.90;;;;;;4972380;28;20065;-79
2021/05/13 07:46:04;;;;;;;27.48;4.18;;;14.10;90.00;;;;;;4977868;28;20030;-78
2021/05/13 07:48:31;;;;;;;14.50;2.92;;;14.20;89.70;;;;;;4972425;28;20030;-78
2021/05/13 07:50:57;;;;;;;18.40;2.88;;;14.30;90.10;;;;;;4977536;28;20035;-80
2021/05/13 07:53:24;;;;;;;18.73;2.67;;;14.20;89.00;;;;;;4972340;28;20031;-75
2021/05/13 07:55:50;;;;;;;23.58;3.90;;;14.10;90.10;;;;;;4976275;28;20226;-77
2021/05/13 07:58:16;;;;;;;21.45;2.65;;;14.20;89.70;;;;;;4974192;28;20267;-81
2021/05/13 08:00:42;;;;;;;14.65;2.90;;;14.40;88.50;;;;;;4981629;28;20027;-77
2021/05/13 08:03:08;;;;;;;22.73;3.15;;;14.50;87.90;;;;;;4970130;28;20030;-80
2021/05/13 08:05:34;;;;;;;18.00;2.53;;;14.60;87.30;;;;;;4977210;28;20455;-75
2021/05/13 08:08:00;;;;;;;20.30;3.20;;;14.60;86.90;;;;;;4971915;28;20114;-78
2021/05/13 08:10:26;;;;;;;16.90;2.20;;;14.50;85.30;;;;;;4979019;28;20045;-77
2021/05/13 08:12:51;;;;;;;16.95;2.65;;;14.50;87.40;;;;;;4971845;28;20031;-73
2021/05/13 08:15:17;;;;;;;21.75;2.85;;;14.70;87.10;;;;;;4976580;28;20038;-74
2021/05/13 08:17:43;;;;;;;25.50;3.97;;;14.90;86.80;;;;;;4971901;28;20102;-76
2021/05/13 08:20:13;;;;;;;19.88;3.28;;;15.10;84.60;;;;;;4977041;28;20034;-77
2021/05/13 08:22:39;;;;;;;18.30;3.40;;;14.80;85.50;;;;;;4974595;28;20015;-81
2021/05/13 08:25:07;;;;;;;21.45;2.92;;;14.60;84.70;;;;;;4956648;28;20435;-81
2021/05/13 08:27:33;;;;;;;23.10;3.08;;;14.40;86.60;;;;;;4970873;28;20050;-79
2021/05/13 08:30:00;;;;;;;16.27;2.28;;;14.20;88.00;;;;;;4975128;28;20031;-79
2021/05/13 08:32:26;;;;;;;24.80;3.22;;;14.20;87.00;;;;;;4972031;28;20073;-78
2021/05/13 08:34:55;;;;;;;15.30;2.50;;;14.20;88.60;;;;;;4974616;28;20081;-77
2021/05/13 08:37:21;;;;;;;26.30;3.20;;;14.40;88.10;;;;;;4977985;28;20043;-81
2021/05/13 08:39:47;;;;;;;15.98;2.60;;;14.60;85.80;;;;;;4973522;28;20027;-76
2021/05/13 08:42:13;;;;;;;14.73;2.95;;;14.70;85.80;;;;;;4973847;28;20105;-78
2021/05/13 08:44:42;;;;;;;19.42;2.65;;;14.80;84.90;;;;;;4973417;28;20127;-79
2021/05/13 08:47:08;;;;;;;18.55;2.55;;;14.80;84.20;;;;;;4974800;28;20041;-77
2021/05/13 08:49:38;;;;;;;20.67;2.63;;;15.00;85.00;;;;;;4975592;28;20050;-80
2021/05/13 08:52:11;;;;;;;15.65;2.65;;;15.40;83.20;;;;;;4966258;28;20055;-77
2021/05/13 08:54:49;;;;;;;18.63;3.58;;;15.20;82.70;;;;;;4976342;28;20053;-78
2021/05/13 08:57:14;;;;;;;27.00;3.88;;;15.10;83.40;;;;;;4969407;28;20114;-79
2021/05/13 08:59:43;;;;;;;15.93;2.60;;;15.00;82.80;;;;;;4978825;28;20534;-78
2021/05/13 09:02:11;;;;;;;18.65;2.28;;;14.90;83.70;;;;;;4973768;28;20019;-79
2021/05/13 09:04:48;;;;;;;21.13;3.55;;;15.10;84.90;;;;;;4979035;28;20480;-78
2021/05/13 09:07:19;;;;;;;15.88;2.97;;;15.00;85.00;;;;;;4972394;28;20018;-79
2021/05/13 09:09:56;;;;;;;12.10;2.05;;;15.10;84.40;;;;;;4979194;28;20045;-79
2021/05/13 09:12:24;;;;;;;13.90;2.42;;;15.30;82.00;;;;;;4973108;28;20082;-81
2021/05/13 09:15:03;;;;;;;15.55;2.03;;;15.10;81.50;;;;;;4980623;28;20038;-81
2021/05/13 09:17:29;;;;;;;21.73;3.00;;;14.90;81.60;;;;;;4975860;28;20015;-82
2021/05/13 09:19:56;;;;;;;22.60;2.60;;;14.90;80.70;;;;;;4979026;28;20052;-79
2021/05/13 09:22:26;;;;;;;14.63;2.22;;;14.90;81.90;;;;;;4973410;28;20034;-80
2021/05/13 09:25:07;;;;;;;18.27;3.10;;;15.00;82.40;;;;;;4978407;28;20022;-80
2021/05/13 09:27:44;;;;;;;15.20;2.15;;;15.00;83.30;;;;;;4974201;28;20023;-80
2021/05/13 09:30:15;;;;;;;14.23;2.47;;;15.20;82.90;;;;;;4968278;28;20507;-79
2021/05/13 09:32:48;;;;;;;12.38;2.60;;;15.20;82.00;;;;;;4969565;28;20110;-80
2021/05/13 09:35:18;;;;;;;15.02;2.42;;;15.10;80.90;;;;;;4975173;28;20033;-79
2021/05/13 09:37:45;;;;;;;13.05;2.38;;;15.20;82.00;;;;;;4973247;28;20023;-81
2021/05/13 09:40:12;;;;;;;13.60;1.85;;;15.20;80.70;;;;;;4975904;28;20083;-82
2021/05/13 09:42:38;;;;;;;16.92;2.38;;;15.00;80.20;;;;;;4970598;28;20411;-84
2021/05/13 09:45:12;;;;;;;19.38;2.65;;;15.00;80.50;;;;;;4958732;28;20022;-81
2021/05/13 09:47:38;;;;;;;14.45;2.20;;;15.00;81.50;;;;;;4971327;28;20035;-82
2021/05/13 09:50:07;;;;;;;11.07;2.13;;;15.00;81.40;;;;;;4975282;28;20038;-84
2021/05/13 09:52:49;;;;;;;12.25;2.00;;;15.20;79.70;;;;;;4970856;28;20109;-82
2021/05/13 09:55:35;;;;;;;11.93;2.13;;;15.10;80.80;;;;;;4975725;28;20027;-81
2021/05/13 09:58:10;;;;;;;14.48;2.22;;;15.10;77.50;;;;;;4981703;28;20089;-81
2021/05/13 10:00:48;;;;;;;10.02;1.88;;;15.20;77.80;;;;;;4979142;28;20118;-82
2021/05/13 10:03:20;;;;;;;11.57;1.98;;;15.10;77.30;;;;;;4983050;28;20019;-86
2021/05/13 10:05:52;;;;;;;11.70;2.20;;;15.20;78.10;;;;;;4983148;28;20066;-83
2021/05/13 10:08:18;;;;;;;11.30;2.20;;;15.20;80.50;;;;;;4957301;28;20500;-82
2021/05/13 10:10:44;;;;;;;15.23;2.47;;;15.40;79.00;;;;;;4976133;28;20030;-83
2021/05/13 10:13:11;;;;;;;11.52;1.85;;;15.20;79.80;;;;;;4973014;28;20022;-86
2021/05/13 10:15:41;;;;;;;17.30;2.30;;;15.20;79.50;;;;;;4959445;28;20039;-84
2021/05/13 10:18:34;;;;;;;11.48;1.83;;;15.10;80.10;;;;;;4976391;28;20019;-85
2021/05/13 10:21:05;;;;;;;22.92;2.85;;;15.30;79.40;;;;;;4979545;28;20030;-83
2021/05/13 10:23:32;;;;;;;16.25;2.05;;;15.30;79.70;;;;;;4974523;28;20404;-84
2021/05/13 10:25:58;;;;;;;15.20;2.50;;;15.30;79.90;;;;;;4979694;28;20022;-89
2021/05/13 10:28:28;;;;;;;14.77;2.22;;;15.50;80.80;;;;;;4976012;28;20019;-85
2021/05/13 10:31:06;;;;;;;17.15;2.33;;;15.50;82.30;;;;;;4980693;28;20034;-88
2021/05/13 10:33:50;;;;;;;12.93;2.28;;;15.40;80.90;;;;;;4958575;28;20031;-87
2021/05/13 10:36:19;;;;;;;18.75;3.33;;;15.50;81.60;;;;;;4976649;28;20297;-86
2021/05/13 10:38:48;;;;;;;15.55;2.63;;;15.70;78.70;;;;;;4974030;28;20050;-87
2021/05/13 10:41:32;;;;;;;16.25;2.58;;;15.70;81.20;;;;;;4977352;28;20085;-87
2021/05/13 10:44:18;;;;;;;12.35;1.80;;;15.90;78.80;;;;;;4951384;28;20626;-85
2021/05/13 10:46:55;;;;;;;12.77;2.13;;;15.80;78.50;;;;;;4950982;28;20045;-84
2021/05/13 10:49:23;;;;;;;14.43;2.03;;;15.70;77.80;;;;;;4972987;28;20038;-85
2021/05/13 10:52:19;;;;;;;16.98;2.33;;;15.70;78.20;;;;;;4973435;28;20063;-84
2021/05/13 10:54:47;;;;;;;12.32;2.40;;;15.60;77.90;;;;;;4946150;28;20031;-87
2021/05/13 10:57:19;;;;;;;12.50;2.17;;;15.70;78.70;;;;;;4975006;28;20030;-85
2021/05/13 11:00:03;;;;;;;9.80;1.85;;;15.90;75.40;;;;;;4972960;28;20515;-84
2021/05/13 11:02:36;;;;;;;14.27;2.00;;;15.90;76.70;;;;;;4967160;28;20031;-84
2021/05/13 11:05:22;;;;;;;11.55;1.90;;;15.80;77.60;;;;;;4956155;28;20058;-84
2021/05/13 11:07:49;;;;;;;13.15;2.60;;;15.80;78.50;;;;;;4954526;28;20027;-84
2021/05/13 11:10:14;;;;;;;18.02;2.28;;;15.90;76.20;;;;;;4976755;28;20090;-84
2021/05/13 11:12:42;;;;;;;16.27;2.25;;;15.80;74.60;;;;;;4951341;28;20019;-87
2021/05/13 11:15:16;;;;;;;10.07;1.90;;;15.70;75.50;;;;;;4969974;28;20553;-86
2021/05/13 11:17:53;;;;;;;12.27;2.20;;;15.70;74.50;;;;;;4953714;28;20026;-85
2021/05/13 11:20:31;;;;;;;14.63;2.63;;;15.80;77.80;;;;;;4960908;28;20127;-85
2021/05/13 11:22:59;;;;;;;14.90;2.72;;;15.70;76.70;;;;;;4986323;28;20555;-85
2021/05/13 11:25:45;;;;;;;10.57;1.63;;;15.80;76.30;;;;;;4957636;28;20027;-85
2021/05/13 11:28:24;;;;;;;7.80;1.70;;;16.00;77.40;;;;;;4966128;28;20023;-87
2021/05/13 11:30:52;;;;;;;15.75;2.65;;;16.20;70.80;;;;;;4978226;28;20030;-84
2021/05/13 11:33:18;;;;;;;13.90;2.47;;;16.10;73.50;;;;;;4973172;28;20027;-85
2021/05/13 11:35:44;;;;;;;11.88;2.38;;;16.20;73.10;;;;;;4977881;28;20090;-84
2021/05/13 11:38:18;;;;;;;15.05;2.28;;;15.90;74.20;;;;;;4955261;28;20034;-85
2021/05/13 11:40:45;;;;;;;14.70;2.35;;;15.90;76.20;;;;;;4977994;28;20046;-86
2021/05/13 11:43:23;;;;;;;10.90;2.28;;;16.10;74.70;;;;;;4945635;28;20057;-85
2021/05/13 11:45:51;;;;;;;13.75;2.15;;;16.30;73.00;;;;;;4959906;28;20033;-84
2021/05/13 11:48:18;;;;;;;15.50;2.53;;;16.30;72.50;;;;;;4961467;28;20031;-87
2021/05/13 11:50:44;;;;;;;14.55;1.98;;;16.30;74.70;;;;;;4959090;28;20022;-84
2021/05/13 11:53:14;;;;;;;13.43;2.10;;;16.20;75.00;;;;;;4984636;28;20022;-84
2021/05/13 11:55:40;;;;;;;13.75;2.53;;;16.10;73.20;;;;;;4981357;28;20077;-85
2021/05/13 11:58:07;;;;;;;11.50;1.70;;;16.10;75.60;;;;;;4984617;28;20031;-85
2021/05/13 12:00:33;;;;;;;13.18;2.20;;;16.20;74.90;;;;;;4980075;28;20022;-86
2021/05/13 12:03:14;;;;;;;15.48;1.98;;;16.40;75.30;;;;;;4973972;28;20030;-85
2021/05/13 12:05:48;;;;;;;10.15;1.80;;;16.80;73.20;;;;;;4980775;28;20030;-84
2021/05/13 12:08:15;;;;;;;;;;;17.00;73.70;;;;;;4966872;28;20440;-86
2021/05/13 12:10:41;;;;;;;17.35;2.38;;;16.90;71.70;;;;;;4970780;28;19914;-87
2021/05/13 12:13:06;;;;;;;9.80;2.05;;;16.80;76.10;;;;;;4973737;28;20026;-87
2021/05/13 12:15:32;;;;;;;9.98;1.83;;;16.50;72.40;;;;;;4974772;28;20062;-87
2021/05/13 12:17:58;;;;;;;10.82;2.17;;;16.30;73.00;;;;;;4974417;28;20105;-87
2021/05/13 12:20:24;;;;;;;13.10;1.77;;;16.30;71.40;;;;;;4957491;28;20358;-87
2021/05/13 12:22:50;;;;;;;11.13;2.10;;;16.40;71.40;;;;;;4975129;28;20026;-88
2021/05/13 12:25:15;;;;;;;8.45;1.88;;;16.40;70.90;;;;;;4979945;28;20488;-87
2021/05/13 12:27:41;;;;;;;17.65;2.20;;;16.40;70.10;;;;;;4975993;28;20026;-87
2021/05/13 12:30:07;;;;;;;11.30;2.42;;;16.50;72.50;;;;;;4976748;28;20039;-88
2021/05/13 12:32:34;;;;;;;14.27;2.05;;;16.60;72.80;;;;;;4954690;28;20512;-88
2021/05/13 12:35:01;;;;;;;11.65;2.38;;;16.50;70.40;;;;;;4977042;28;20541;-88
2021/05/13 12:37:27;;;;;;;13.18;1.95;;;16.70;67.80;;;;;;4972049;28;20025;-86
2021/05/13 12:39:53;;;;;;;14.18;1.63;;;16.80;69.10;;;;;;4976640;28;20051;-87
2021/05/13 12:42:29;;;;;;;12.15;1.88;;;17.00;66.20;;;;;;4971745;28;20105;-88
2021/05/13 12:45:25;;;;;;;12.30;1.80;;;16.90;68.10;;;;;;4977045;28;20034;-88
2021/05/13 12:48:01;;;;;;;12.07;1.80;;;17.00;69.30;;;;;;4977116;28;20203;-87
2021/05/13 12:50:27;;;;;;;13.18;2.00;;;16.90;69.50;;;;;;4976560;28;20039;-89
2021/05/13 12:53:18;;;;;;;12.07;2.28;;;16.80;69.70;;;;;;4971576;28;20023;-88